Time;durP1;ratioP1;P1;durP2;ratioP2;P2;SDS_P1;SDS_P2;PMS_P1;PMS_P2;Temp;Humidity;BMP_temperature;BMP_pressure;BME280_temperature;BME280_humidity;BME280_pressure;Samples;Min_cycle;Max_cycle;Signal;HPM_P1;HPM_P2
2022/11/09 00:00:46;;;;;;;48.17;24.88;;;;;;;;;;4918557;29;20189;-61
2022/11/09 00:03:14;;;;;;;70.13;28.00;;;;;;;;;;4918687;29;20283;-61
2022/11/09 00:05:41;;;;;;;48.03;23.50;;;;;;;;;;4918222;29;20540;-61
2022/11/09 00:08:09;;;;;;;44.45;22.40;;;;;;;;;;4918376;29;20216;-61
2022/11/09 00:10:37;;;;;;;54.60;25.88;;;;;;;;;;4918436;29;20215;-61
2022/11/09 00:13:04;;;;;;;45.05;22.10;;;;;;;;;;4918288;29;20221;-61
2022/11/09 00:15:31;;;;;;;44.03;22.42;;;;;;;;;;4918305;29;20271;-60
2022/11/09 00:18:00;;;;;;;46.63;23.27;;;;;;;;;;4918240;29;20590;-61
2022/11/09 00:20:27;;;;;;;48.63;23.77;;;;;;;;;;4918263;29;20215;-61
2022/11/09 00:22:54;;;;;;;44.97;22.70;;;;;;;;;;4918255;29;20236;-61
2022/11/09 00:25:21;;;;;;;83.05;36.88;;;;;;;;;;4918606;29;20597;-61
2022/11/09 00:27:48;;;;;;;41.30;23.40;;;;;;;;;;4918791;29;20296;-61
2022/11/09 00:30:15;;;;;;;50.70;25.92;;;;;;;;;;4917489;29;20252;-61
2022/11/09 00:32:43;;;;;;;58.55;26.98;;;;;;;;;;4918081;29;20212;-61
2022/11/09 00:35:11;;;;;;;53.42;25.35;;;;;;;;;;4917917;29;20304;-61
2022/11/09 00:37:39;;;;;;;52.70;23.58;;;;;;;;;;4918263;29;20213;-60
2022/11/09 00:40:09;;;;;;;52.30;25.25;;;;;;;;;;4918104;29;20213;-60
2022/11/09 00:42:37;;;;;;;40.10;21.58;;;;;;;;;;4917921;29;20229;-61
2022/11/09 00:45:04;;;;;;;42.65;22.60;;;;;;;;;;4917934;29;20572;-61
2022/11/09 00:47:32;;;;;;;39.28;22.08;;;;;;;;;;4917241;29;20209;-61
2022/11/09 00:49:59;;;;;;;45.75;22.85;;;;;;;;;;4918081;29;20230;-61
2022/11/09 00:52:26;;;;;;;44.30;23.45;;;;;;;;;;4918593;29;20217;-61
2022/11/09 00:54:53;;;;;;;49.38;25.92;;;;;;;;;;4920098;29;20208;-61
2022/11/09 00:57:20;;;;;;;52.90;24.77;;;;;;;;;;4920510;29;20205;-61
2022/11/09 00:59:48;;;;;;;43.58;23.92;;;;;;;;;;4921463;29;20223;-61
2022/11/09 01:02:15;;;;;;;50.42;23.48;;;;;;;;;;4921360;29;20204;-61
2022/11/09 01:04:42;;;;;;;47.80;27.33;;;;;;;;;;4920957;29;20312;-61
2022/11/09 01:07:09;;;;;;;56.00;29.13;;;;;;;;;;4921029;29;20655;-61
2022/11/09 01:09:36;;;;;;;57.67;27.33;;;;;;;;;;4921286;29;20295;-61
2022/11/09 01:12:03;;;;;;;48.90;23.92;;;;;;;;;;4921268;29;20213;-61
2022/11/09 01:14:30;;;;;;;49.70;24.47;;;;;;;;;;4920318;29;20275;-62
2022/11/09 01:16:58;;;;;;;47.30;23.67;;;;;;;;;;4920917;29;20569;-61
2022/11/09 01:19:25;;;;;;;46.22;22.60;;;;;;;;;;4920665;29;20212;-61
2022/11/09 01:21:52;;;;;;;38.80;21.25;;;;;;;;;;4921045;29;20204;-60
2022/11/09 01:24:19;;;;;;;46.40;23.33;;;;;;;;;;4919772;29;20759;-61
2022/11/09 01:26:47;;;;;;;46.17;22.35;;;;;;;;;;4920595;29;20648;-61
2022/11/09 01:29:14;;;;;;;44.15;23.05;;;;;;;;;;4921161;29;20215;-61
2022/11/09 01:31:41;;;;;;;63.90;32.03;;;;;;;;;;4920571;29;20632;-61
2022/11/09 01:34:08;;;;;;;50.83;25.37;;;;;;;;;;4920706;29;20240;-61
2022/11/09 01:36:35;;;;;;;55.45;25.38;;;;;;;;;;4920635;29;20632;-60
2022/11/09 01:39:02;;;;;;;53.55;24.42;;;;;;;;;;4920758;29;20213;-61
2022/11/09 01:41:29;;;;;;;50.10;24.60;;;;;;;;;;4920518;29;20602;-61
2022/11/09 01:44:08;;;;;;;52.20;24.13;;;;;;;;;;4920387;29;20220;-60
2022/11/09 01:46:46;;;;;;;48.08;24.80;;;;;;;;;;4920855;29;20221;-61
2022/11/09 01:49:17;;;;;;;52.05;23.63;;;;;;;;;;4920597;29;20231;-61
2022/11/09 01:51:49;;;;;;;49.58;24.73;;;;;;;;;;4919910;29;20216;-61
2022/11/09 01:54:20;;;;;;;43.22;22.92;;;;;;;;;;4919746;29;20201;-61
2022/11/09 01:56:49;;;;;;;42.17;22.73;;;;;;;;;;4920835;29;20549;-61
2022/11/09 01:59:19;;;;;;;58.80;32.03;;;;;;;;;;4899574;29;20717;-61
2022/11/09 02:01:47;;;;;;;48.30;24.98;;;;;;;;;;4884229;29;20205;-61
2022/11/09 02:04:39;;;;;;;50.28;24.13;;;;;;;;;;4884113;29;20243;-61
2022/11/09 02:07:09;;;;;;;44.07;23.70;;;;;;;;;;4883181;29;20218;-61
2022/11/09 02:09:42;;;;;;;45.37;23.67;;;;;;;;;;4899656;29;20210;-61
2022/11/09 02:12:10;;;;;;;47.80;24.13;;;;;;;;;;4899505;29;20213;-61
2022/11/09 02:14:39;;;;;;;44.40;22.80;;;;;;;;;;4883782;29;20600;-61
2022/11/09 02:17:06;;;;;;;47.30;25.23;;;;;;;;;;4884035;29;20241;-61
2022/11/09 02:19:33;;;;;;;41.20;22.15;;;;;;;;;;4883883;29;20208;-61
2022/11/09 02:22:02;;;;;;;43.53;23.93;;;;;;;;;;4899377;29;20204;-61
2022/11/09 02:24:32;;;;;;;48.60;22.97;;;;;;;;;;4883600;29;20280;-62
2022/11/09 02:26:59;;;;;;;46.50;24.47;;;;;;;;;;4883658;29;20543;-61
2022/11/09 02:29:34;;;;;;;49.63;24.23;;;;;;;;;;4887103;29;20204;-61
2022/11/09 02:32:05;;;;;;;47.20;23.40;;;;;;;;;;4918940;29;20201;-61
2022/11/09 02:34:32;;;;;;;39.73;22.60;;;;;;;;;;4918644;29;20632;-61
2022/11/09 02:37:00;;;;;;;57.28;25.33;;;;;;;;;;4918838;29;20580;-61
2022/11/09 02:39:27;;;;;;;61.77;28.50;;;;;;;;;;4918527;29;20216;-61
2022/11/09 02:42:15;;;;;;;49.13;25.13;;;;;;;;;;4918566;29;20550;-61
2022/11/09 02:44:54;;;;;;;50.75;24.77;;;;;;;;;;4903778;29;20228;-61
2022/11/09 02:47:21;;;;;;;45.67;24.13;;;;;;;;;;4902932;29;20261;-61
2022/11/09 02:49:49;;;;;;;45.67;23.42;;;;;;;;;;4918669;29;20241;-61
2022/11/09 02:52:16;;;;;;;142.57;99.70;;;;;;;;;;4918395;29;20260;-61
2022/11/09 02:54:45;;;;;;;73.37;40.60;;;;;;;;;;4918209;29;20212;-61
2022/11/09 02:57:12;;;;;;;79.07;31.87;;;;;;;;;;4918109;29;20296;-61
2022/11/09 02:59:39;;;;;;;70.40;29.48;;;;;;;;;;4919448;29;20204;-61
2022/11/09 03:02:06;;;;;;;62.58;27.83;;;;;;;;;;4902763;29;20288;-61
2022/11/09 03:04:34;;;;;;;66.30;29.00;;;;;;;;;;4918876;29;20675;-61
2022/11/09 03:07:01;;;;;;;47.65;24.38;;;;;;;;;;4902553;29;20205;-61
2022/11/09 03:09:30;;;;;;;47.60;24.17;;;;;;;;;;4902645;29;20197;-61
2022/11/09 03:11:57;;;;;;;45.57;24.13;;;;;;;;;;4919059;29;20236;-61
2022/11/09 03:14:24;;;;;;;48.35;25.08;;;;;;;;;;4902508;29;20212;-61
2022/11/09 03:16:55;;;;;;;45.00;25.23;;;;;;;;;;4902113;29;20232;-61
2022/11/09 03:19:24;;;;;;;61.33;30.23;;;;;;;;;;4902414;29;20263;-61
2022/11/09 03:21:52;;;;;;;136.30;53.53;;;;;;;;;;4902277;29;20209;-61
2022/11/09 03:24:22;;;;;;;62.43;27.43;;;;;;;;;;4902350;29;20228;-61
2022/11/09 03:26:52;;;;;;;99.00;35.95;;;;;;;;;;4902896;29;20284;-61
2022/11/09 03:29:20;;;;;;;71.32;29.45;;;;;;;;;;4902503;29;20215;-61
2022/11/09 03:31:47;;;;;;;76.97;32.47;;;;;;;;;;4902241;29;20208;-61
2022/11/09 03:34:14;;;;;;;55.40;26.70;;;;;;;;;;4918785;29;20232;-62
2022/11/09 03:36:42;;;;;;;65.67;28.80;;;;;;;;;;4901917;29;20264;-61
2022/11/09 03:39:09;;;;;;;53.70;26.47;;;;;;;;;;4918706;29;20212;-61
2022/11/09 03:41:36;;;;;;;87.40;31.95;;;;;;;;;;4918697;29;20228;-62
2022/11/09 03:44:03;;;;;;;65.47;28.42;;;;;;;;;;4901884;29;20675;-61
2022/11/09 03:46:30;;;;;;;110.70;53.78;;;;;;;;;;4918657;29;20566;-62
2022/11/09 03:48:57;;;;;;;103.40;42.97;;;;;;;;;;4918566;29;20276;-61
2022/11/09 03:51:24;;;;;;;221.60;57.83;;;;;;;;;;4918594;29;20209;-61
2022/11/09 03:53:51;;;;;;;86.33;32.87;;;;;;;;;;4918573;29;20220;-61
2022/11/09 03:56:18;;;;;;;84.57;32.70;;;;;;;;;;4902011;29;20233;-61
2022/11/09 03:58:45;;;;;;;58.53;26.73;;;;;;;;;;4918270;29;20208;-61
2022/11/09 04:01:12;;;;;;;106.45;38.83;;;;;;;;;;4918504;29;20204;-61
2022/11/09 04:03:39;;;;;;;83.95;33.50;;;;;;;;;;4918112;29;20243;-61
2022/11/09 04:06:06;;;;;;;71.82;29.90;;;;;;;;;;4918144;29;20354;-61
2022/11/09 04:08:33;;;;;;;149.98;82.13;;;;;;;;;;4918614;29;20216;-61
2022/11/09 04:11:00;;;;;;;66.65;45.75;;;;;;;;;;4918423;29;20216;-61
2022/11/09 04:13:27;;;;;;;80.75;38.10;;;;;;;;;;4918568;29;20217;-61
2022/11/09 04:15:54;;;;;;;96.37;34.40;;;;;;;;;;4918355;29;20232;-61
2022/11/09 04:18:21;;;;;;;70.93;30.50;;;;;;;;;;4918584;29;20216;-61
2022/11/09 04:20:48;;;;;;;58.47;27.43;;;;;;;;;;4902271;29;20220;-61
2022/11/09 04:23:16;;;;;;;62.70;27.53;;;;;;;;;;4918196;29;20660;-61
2022/11/09 04:25:43;;;;;;;77.87;32.00;;;;;;;;;;4918323;29;20293;-61
2022/11/09 04:28:17;;;;;;;55.00;25.88;;;;;;;;;;4918134;29;20629;-61
2022/11/09 04:30:44;;;;;;;51.17;24.93;;;;;;;;;;4921775;29;20212;-61
2022/11/09 04:33:11;;;;;;;51.60;25.70;;;;;;;;;;4921653;29;20761;-61
2022/11/09 04:35:38;;;;;;;45.80;23.02;;;;;;;;;;4905356;29;20209;-61
2022/11/09 04:38:08;;;;;;;88.68;38.65;;;;;;;;;;4921538;29;20527;-61
2022/11/09 04:40:35;;;;;;;83.65;31.95;;;;;;;;;;4905196;29;20212;-61
2022/11/09 04:43:04;;;;;;;47.40;22.42;;;;;;;;;;4921742;29;20232;-60
2022/11/09 04:45:33;;;;;;;55.97;25.45;;;;;;;;;;4921884;29;20244;-61
2022/11/09 04:48:02;;;;;;;54.75;26.20;;;;;;;;;;4922199;29;20263;-61
2022/11/09 04:50:29;;;;;;;47.17;23.27;;;;;;;;;;4921510;29;20232;-61
2022/11/09 04:53:12;;;;;;;49.23;22.43;;;;;;;;;;4921488;29;20276;-61
2022/11/09 04:55:39;;;;;;;51.08;23.48;;;;;;;;;;4921449;29;20196;-60
2022/11/09 04:58:07;;;;;;;45.97;22.63;;;;;;;;;;4921822;29;20620;-59
2022/11/09 05:00:34;;;;;;;44.65;24.27;;;;;;;;;;4915486;29;20546;-60
2022/11/09 05:03:03;;;;;;;59.17;30.60;;;;;;;;;;4903621;29;20240;-61
2022/11/09 05:05:32;;;;;;;54.25;25.08;;;;;;;;;;4923965;29;20629;-61
2022/11/09 05:07:59;;;;;;;57.28;24.00;;;;;;;;;;4923986;29;20680;-61
2022/11/09 05:10:26;;;;;;;49.47;24.13;;;;;;;;;;4919765;29;20256;-61
2022/11/09 05:13:01;;;;;;;46.55;22.30;;;;;;;;;;4919865;29;20233;-60
2022/11/09 05:15:28;;;;;;;49.97;23.55;;;;;;;;;;4919044;29;20695;-61
2022/11/09 05:17:56;;;;;;;46.00;22.63;;;;;;;;;;4919905;29;20229;-61
2022/11/09 05:20:23;;;;;;;111.50;65.10;;;;;;;;;;4886964;29;20229;-61
2022/11/09 05:25:36;;;;;;;50.43;23.43;;;;;;;;;;4919613;29;20255;-61
2022/11/09 05:28:04;;;;;;;51.57;24.50;;;;;;;;;;4919704;29;20252;-61
2022/11/09 05:30:31;;;;;;;50.57;24.70;;;;;;;;;;4919437;29;20228;-61
2022/11/09 05:32:58;;;;;;;49.03;23.20;;;;;;;;;;4919441;29;20246;-62
2022/11/09 05:35:25;;;;;;;47.30;23.07;;;;;;;;;;4919451;29;20236;-61
2022/11/09 05:37:52;;;;;;;42.95;21.88;;;;;;;;;;4919447;29;20256;-61
2022/11/09 05:40:19;;;;;;;46.90;23.03;;;;;;;;;;4919248;29;20225;-61
2022/11/09 05:42:47;;;;;;;41.33;20.47;;;;;;;;;;4919396;29;20232;-60
2022/11/09 05:45:15;;;;;;;40.53;21.80;;;;;;;;;;4917901;29;20303;-60
2022/11/09 05:48:03;;;;;;;69.93;37.17;;;;;;;;;;4918682;29;20233;-63
2022/11/09 05:50:30;;;;;;;66.13;27.17;;;;;;;;;;4918563;29;20229;-62
2022/11/09 05:53:11;;;;;;;59.73;24.83;;;;;;;;;;4902543;29;20232;-61
2022/11/09 05:55:38;;;;;;;53.57;23.13;;;;;;;;;;4917653;29;20575;-59
2022/11/09 05:58:06;;;;;;;46.10;23.50;;;;;;;;;;4917283;29;20256;-60
2022/11/09 06:00:33;;;;;;;45.97;22.97;;;;;;;;;;4917317;29;20224;-61
2022/11/09 06:03:05;;;;;;;70.03;36.57;;;;;;;;;;4901151;29;20720;-60
2022/11/09 06:05:33;;;;;;;66.57;37.25;;;;;;;;;;4917311;29;20348;-62
2022/11/09 06:08:05;;;;;;;61.67;28.33;;;;;;;;;;4917513;29;20237;-61
2022/11/09 06:10:32;;;;;;;42.10;22.23;;;;;;;;;;4919604;29;20611;-61
2022/11/09 06:13:00;;;;;;;49.97;23.80;;;;;;;;;;4918442;29;20239;-61
2022/11/09 06:15:26;;;;;;;40.17;20.80;;;;;;;;;;4918860;29;20236;-62
2022/11/09 06:17:55;;;;;;;39.50;22.27;;;;;;;;;;4918764;29;20672;-61
2022/11/09 06:20:23;;;;;;;39.97;20.23;;;;;;;;;;4919614;29;20308;-61
2022/11/09 06:22:53;;;;;;;39.33;20.23;;;;;;;;;;4919683;29;20212;-61
2022/11/09 06:25:27;;;;;;;48.30;22.63;;;;;;;;;;4919670;29;20240;-62
2022/11/09 06:27:56;;;;;;;46.23;23.40;;;;;;;;;;4903080;29;20201;-62
2022/11/09 06:30:23;;;;;;;60.47;25.83;;;;;;;;;;4919475;29;20264;-61
2022/11/09 06:32:50;;;;;;;60.53;26.90;;;;;;;;;;4919603;29;20662;-62
2022/11/09 06:35:17;;;;;;;58.90;24.73;;;;;;;;;;4903574;29;20378;-61
2022/11/09 06:37:45;;;;;;;62.33;25.30;;;;;;;;;;4919591;29;20209;-62
2022/11/09 06:40:12;;;;;;;45.77;22.57;;;;;;;;;;4919612;29;20204;-61
2022/11/09 06:42:40;;;;;;;45.90;22.47;;;;;;;;;;4903152;29;20220;-61
2022/11/09 06:45:07;;;;;;;43.77;21.90;;;;;;;;;;4903053;29;20236;-61
2022/11/09 06:47:34;;;;;;;42.80;22.63;;;;;;;;;;4919828;29;20205;-61
2022/11/09 06:50:01;;;;;;;49.10;21.87;;;;;;;;;;4919385;29;20208;-61
2022/11/09 06:52:28;;;;;;;44.93;21.87;;;;;;;;;;4918814;29;20601;-61
2022/11/09 06:54:55;;;;;;;44.80;22.37;;;;;;;;;;4903287;29;20272;-61
2022/11/09 06:57:23;;;;;;;47.50;23.63;;;;;;;;;;4919801;29;20225;-61
2022/11/09 06:59:50;;;;;;;69.70;29.83;;;;;;;;;;4919040;29;20212;-61
2022/11/09 07:02:17;;;;;;;47.73;22.63;;;;;;;;;;4902548;29;20212;-62
2022/11/09 07:04:44;;;;;;;50.43;22.63;;;;;;;;;;4918971;29;20233;-61
2022/11/09 07:07:11;;;;;;;43.00;22.33;;;;;;;;;;4918924;29;20636;-61
2022/11/09 07:09:38;;;;;;;53.13;23.40;;;;;;;;;;4919636;29;20218;-61
2022/11/09 07:12:06;;;;;;;46.55;23.30;;;;;;;;;;4902575;29;20602;-62
2022/11/09 07:14:33;;;;;;;46.20;22.48;;;;;;;;;;4902664;29;20299;-61
2022/11/09 07:17:00;;;;;;;43.10;22.08;;;;;;;;;;4919080;29;20695;-62
2022/11/09 07:19:28;;;;;;;45.33;22.15;;;;;;;;;;4918714;29;20209;-62
2022/11/09 07:21:56;;;;;;;41.17;21.13;;;;;;;;;;4902377;29;20264;-62
2022/11/09 07:24:23;;;;;;;74.63;29.05;;;;;;;;;;4919430;29;20216;-62
2022/11/09 07:26:51;;;;;;;63.07;26.63;;;;;;;;;;4918730;29;20221;-62
2022/11/09 07:29:18;;;;;;;53.58;25.60;;;;;;;;;;4918691;29;20655;-62
2022/11/09 07:31:45;;;;;;;52.78;23.70;;;;;;;;;;4918845;29;20260;-61
2022/11/09 07:34:12;;;;;;;53.70;26.08;;;;;;;;;;4902143;29;20220;-62
2022/11/09 07:36:39;;;;;;;56.97;26.27;;;;;;;;;;4918728;29;20216;-61
2022/11/09 07:39:06;;;;;;;48.90;23.95;;;;;;;;;;4918753;29;20267;-61
2022/11/09 07:41:33;;;;;;;53.85;24.73;;;;;;;;;;4918554;29;20217;-61
2022/11/09 07:44:00;;;;;;;43.13;21.88;;;;;;;;;;4918731;29;20338;-62
2022/11/09 07:46:28;;;;;;;53.42;23.98;;;;;;;;;;4901994;29;20256;-62
2022/11/09 07:48:55;;;;;;;173.48;98.78;;;;;;;;;;4901933;29;20205;-62
2022/11/09 07:51:22;;;;;;;50.03;27.42;;;;;;;;;;4918868;29;20205;-62
2022/11/09 07:53:49;;;;;;;52.83;26.02;;;;;;;;;;4918417;29;20205;-62
2022/11/09 07:56:16;;;;;;;47.17;23.67;;;;;;;;;;4918262;29;20524;-61
2022/11/09 07:58:43;;;;;;;40.97;22.85;;;;;;;;;;4918461;29;20224;-61
2022/11/09 08:01:11;;;;;;;48.25;23.27;;;;;;;;;;4918441;29;20225;-61
2022/11/09 08:03:38;;;;;;;43.13;23.10;;;;;;;;;;4919341;29;20300;-61
2022/11/09 08:06:05;;;;;;;45.70;23.50;;;;;;;;;;4906168;29;20229;-61
2022/11/09 08:08:32;;;;;;;41.35;22.83;;;;;;;;;;4905497;29;20200;-62
2022/11/09 08:10:59;;;;;;;41.05;23.05;;;;;;;;;;4922293;29;20233;-62
2022/11/09 08:13:26;;;;;;;44.15;22.15;;;;;;;;;;4922567;29;20268;-61
2022/11/09 08:15:54;;;;;;;42.53;25.42;;;;;;;;;;4921394;29;20240;-62
2022/11/09 08:18:21;;;;;;;50.15;26.15;;;;;;;;;;4921061;29;20243;-61
2022/11/09 08:20:49;;;;;;;48.00;24.80;;;;;;;;;;4920683;29;20204;-61
2022/11/09 08:23:17;;;;;;;46.67;25.75;;;;;;;;;;4904476;29;20550;-62
2022/11/09 08:25:45;;;;;;;49.58;27.13;;;;;;;;;;4904114;29;20615;-62
2022/11/09 08:28:14;;;;;;;44.22;24.40;;;;;;;;;;4920568;29;20243;-62
2022/11/09 08:30:43;;;;;;;43.83;23.92;;;;;;;;;;4920484;29;20204;-61
2022/11/09 08:33:11;;;;;;;44.72;23.88;;;;;;;;;;4904207;29;20537;-62
2022/11/09 08:35:38;;;;;;;47.28;24.60;;;;;;;;;;4920797;29;20279;-61
2022/11/09 08:38:05;;;;;;;41.05;22.42;;;;;;;;;;4904188;29;20196;-62
2022/11/09 08:40:33;;;;;;;48.10;23.17;;;;;;;;;;4920670;29;20212;-61
2022/11/09 08:43:06;;;;;;;65.35;32.20;;;;;;;;;;4920257;29;20276;-61
2022/11/09 08:45:35;;;;;;;50.40;24.05;;;;;;;;;;4920398;29;20243;-62
2022/11/09 08:48:03;;;;;;;42.17;22.55;;;;;;;;;;4920708;29;20208;-61
2022/11/09 08:50:33;;;;;;;40.00;21.33;;;;;;;;;;4920348;29;20213;-61
2022/11/09 08:53:01;;;;;;;34.97;20.88;;;;;;;;;;4872635;29;20212;-62
2022/11/09 08:55:28;;;;;;;40.25;21.25;;;;;;;;;;4903702;29;20276;-62
2022/11/09 08:57:58;;;;;;;42.47;22.23;;;;;;;;;;4903641;29;20209;-61
2022/11/09 09:00:25;;;;;;;39.03;21.15;;;;;;;;;;4919976;29;20213;-61
2022/11/09 09:02:52;;;;;;;37.22;20.75;;;;;;;;;;4920295;29;20209;-61
2022/11/09 09:05:20;;;;;;;46.13;22.50;;;;;;;;;;4920067;29;20240;-62
2022/11/09 09:07:47;;;;;;;58.80;33.25;;;;;;;;;;4919963;29;20208;-61
2022/11/09 09:10:15;;;;;;;74.07;29.58;;;;;;;;;;4920096;29;20261;-62
2022/11/09 09:12:42;;;;;;;86.60;31.73;;;;;;;;;;4919938;29;20224;-61
2022/11/09 09:15:09;;;;;;;52.44;25.08;;;;;;;;;;4886945;29;1127438;-62
2022/11/09 09:17:36;;;;;;;54.53;26.30;;;;;;;;;;4921112;29;20508;-62
2022/11/09 09:20:04;;;;;;;43.00;24.00;;;;;;;;;;4921048;29;20212;-61
2022/11/09 09:22:32;;;;;;;62.58;27.20;;;;;;;;;;4920802;29;20201;-62
2022/11/09 09:24:59;;;;;;;43.47;22.00;;;;;;;;;;4920882;29;20712;-61
2022/11/09 09:27:28;;;;;;;36.72;19.48;;;;;;;;;;4921002;29;20224;-61
2022/11/09 09:29:56;;;;;;;48.15;21.05;;;;;;;;;;4921111;29;20252;-61
2022/11/09 09:32:23;;;;;;;55.53;23.88;;;;;;;;;;4920896;29;20255;-61
2022/11/09 09:34:50;;;;;;;432.63;243.85;;;;;;;;;;4920739;29;20216;-61
2022/11/09 09:37:17;;;;;;;87.95;38.13;;;;;;;;;;4921089;29;20229;-61
2022/11/09 09:39:45;;;;;;;69.47;27.58;;;;;;;;;;4920605;29;20231;-62
2022/11/09 09:42:16;;;;;;;51.05;21.95;;;;;;;;;;4920734;29;20215;-61
2022/11/09 09:45:00;;;;;;;45.50;21.17;;;;;;;;;;4904236;29;20181;-61
2022/11/09 09:47:50;;;;;;;51.70;22.67;;;;;;;;;;4904076;29;20208;-62
2022/11/09 09:50:27;;;;;;;39.50;19.60;;;;;;;;;;4920304;29;20216;-61
2022/11/09 09:53:06;;;;;;;36.47;19.55;;;;;;;;;;4904475;29;20275;-61
2022/11/09 09:56:13;;;;;;;46.10;19.23;;;;;;;;;;4890547;29;20489;-61
2022/11/09 09:58:45;;;;;;;33.05;18.60;;;;;;;;;;4904264;29;20208;-62
2022/11/09 10:01:19;;;;;;;70.60;34.58;;;;;;;;;;4904296;29;20233;-61
2022/11/09 10:03:47;;;;;;;70.88;26.55;;;;;;;;;;4920358;29;20189;-62
2022/11/09 10:06:38;;;;;;;63.38;25.35;;;;;;;;;;4919872;29;20244;-61
2022/11/09 10:09:17;;;;;;;42.47;20.55;;;;;;;;;;4904216;29;20232;-61
2022/11/09 10:12:04;;;;;;;35.38;18.92;;;;;;;;;;4903775;29;20204;-61
2022/11/09 10:14:57;;;;;;;40.97;18.63;;;;;;;;;;4891305;29;20212;-61
2022/11/09 10:17:42;;;;;;;31.42;17.92;;;;;;;;;;4901735;29;20251;-61
2022/11/09 10:20:12;;;;;;;42.33;18.67;;;;;;;;;;4920016;29;20223;-61
2022/11/09 10:22:44;;;;;;;38.33;17.95;;;;;;;;;;4920039;29;20216;-61
2022/11/09 10:25:17;;;;;;;29.27;15.57;;;;;;;;;;4904008;29;20283;-61
2022/11/09 10:28:13;;;;;;;61.90;32.22;;;;;;;;;;4905202;29;20632;-61
2022/11/09 10:30:40;;;;;;;68.18;24.40;;;;;;;;;;4919641;29;20196;-61
2022/11/09 10:33:12;;;;;;;33.85;17.52;;;;;;;;;;4919560;29;20208;-61
2022/11/09 10:36:01;;;;;;;41.65;17.02;;;;;;;;;;4903968;29;20201;-62
2022/11/09 10:38:39;;;;;;;40.17;17.15;;;;;;;;;;4920114;29;20235;-62
2022/11/09 10:41:38;;;;;;;37.50;17.85;;;;;;;;;;4905510;29;20664;-60
2022/11/09 10:44:23;;;;;;;34.70;17.23;;;;;;;;;;4905851;29;20639;-61
2022/11/09 10:47:13;;;;;;;40.03;17.08;;;;;;;;;;4920038;29;20220;-61
2022/11/09 10:50:13;;;;;;;26.85;14.98;;;;;;;;;;4919158;29;20620;-61
2022/11/09 10:53:10;;;;;;;68.20;30.10;;;;;;;;;;4906009;29;20272;-61
2022/11/09 10:56:14;;;;;;;75.63;26.27;;;;;;;;;;4919385;29;20205;-61
2022/11/09 10:59:36;;;;;;;43.17;18.08;;;;;;;;;;4919514;29;20220;-61
2022/11/09 11:02:25;;;;;;;30.55;15.85;;;;;;;;;;4919350;29;20522;-60
2022/11/09 11:05:16;;;;;;;49.20;19.10;;;;;;;;;;4919675;29;20545;-61
2022/11/09 11:08:18;;;;;;;37.90;16.35;;;;;;;;;;4919385;29;20269;-62
2022/11/09 11:11:14;;;;;;;29.30;15.13;;;;;;;;;;4906230;29;20212;-62
2022/11/09 11:14:33;;;;;;;37.40;15.43;;;;;;;;;;4919157;29;20224;-61
2022/11/09 11:17:34;;;;;;;229.23;136.23;;;;;;;;;;4919165;29;20236;-61
2022/11/09 11:20:29;;;;;;;56.17;26.83;;;;;;;;;;4919612;29;20196;-61
2022/11/09 11:23:20;;;;;;;32.00;15.38;;;;;;;;;;4918951;29;20268;-61
2022/11/09 11:26:22;;;;;;;23.23;13.77;;;;;;;;;;4919171;29;20232;-61
2022/11/09 11:29:33;;;;;;;27.40;14.32;;;;;;;;;;4918897;29;20359;-62
2022/11/09 11:32:19;;;;;;;25.25;13.68;;;;;;;;;;4860966;29;20214;-61
2022/11/09 11:35:15;;;;;;;28.48;14.00;;;;;;;;;;4860942;29;20195;-61
2022/11/09 11:38:04;;;;;;;24.30;14.15;;;;;;;;;;4861259;29;20199;-61
2022/11/09 11:41:08;;;;;;;22.42;13.00;;;;;;;;;;4861278;29;20195;-62
2022/11/09 11:44:15;;;;;;;24.42;14.30;;;;;;;;;;4860956;29;20209;-61
2022/11/09 11:47:13;;;;;;;36.05;15.43;;;;;;;;;;4861204;29;20246;-62
2022/11/09 11:50:02;;;;;;;19.77;11.43;;;;;;;;;;4847864;29;20214;-61
2022/11/09 11:53:19;;;;;;;32.80;13.48;;;;;;;;;;4860748;29;20215;-62
2022/11/09 11:56:09;;;;;;;17.52;11.05;;;;;;;;;;4847978;29;20218;-61
2022/11/09 11:59:34;;;;;;;22.95;11.95;;;;;;;;;;4860898;29;20297;-61
2022/11/09 12:02:28;;;;;;;31.83;13.80;;;;;;;;;;4847950;29;20226;-61
2022/11/09 12:05:23;;;;;;;24.60;12.48;;;;;;;;;;4861135;29;20627;-61
2022/11/09 12:08:24;;;;;;;19.95;10.73;;;;;;;;;;4866864;29;20634;-62
2022/11/09 12:11:35;;;;;;;67.03;27.25;;;;;;;;;;4918259;29;20280;-61
2022/11/09 12:14:23;;;;;;;43.65;15.80;;;;;;;;;;4918136;29;20200;-62
2022/11/09 12:17:23;;;;;;;33.63;13.00;;;;;;;;;;4918176;29;20816;-62
2022/11/09 12:20:20;;;;;;;24.45;12.30;;;;;;;;;;4904198;29;20200;-61
2022/11/09 12:23:11;;;;;;;23.38;11.48;;;;;;;;;;4918489;29;20197;-61
2022/11/09 12:26:31;;;;;;;40.55;16.52;;;;;;;;;;4918500;29;20244;-62
2022/11/09 12:29:45;;;;;;;22.40;11.90;;;;;;;;;;4918413;29;20272;-61
2022/11/09 12:32:37;;;;;;;18.85;10.68;;;;;;;;;;4904406;29;20197;-62
2022/11/09 12:35:38;;;;;;;223.82;74.28;;;;;;;;;;4918197;29;20542;-62
2022/11/09 12:38:38;;;;;;;67.57;21.75;;;;;;;;;;4918266;29;20224;-61
2022/11/09 12:41:29;;;;;;;59.88;19.10;;;;;;;;;;4904602;29;20223;-61
2022/11/09 12:44:23;;;;;;;33.67;14.23;;;;;;;;;;4905730;29;20209;-61
2022/11/09 12:47:14;;;;;;;31.60;12.63;;;;;;;;;;4917760;29;20612;-62
2022/11/09 12:50:00;;;;;;;24.27;11.55;;;;;;;;;;4918915;29;20276;-62
2022/11/09 12:52:47;;;;;;;26.35;11.63;;;;;;;;;;4921383;29;20652;-61
2022/11/09 12:55:51;;;;;;;36.40;14.00;;;;;;;;;;4907880;29;20264;-62
2022/11/09 12:58:37;;;;;;;47.00;17.00;;;;;;;;;;4921183;29;20232;-61
2022/11/09 13:01:32;;;;;;;105.45;42.95;;;;;;;;;;4920962;29;20208;-61
2022/11/09 13:04:20;;;;;;;204.07;131.60;;;;;;;;;;4907885;29;20209;-62
2022/11/09 13:07:05;;;;;;;87.75;32.67;;;;;;;;;;4921393;29;20236;-62
2022/11/09 13:09:55;;;;;;;56.90;19.33;;;;;;;;;;4921639;29;20365;-61
2022/11/09 13:12:41;;;;;;;44.92;17.60;;;;;;;;;;4907707;29;20201;-61
2022/11/09 13:15:29;;;;;;;34.60;15.30;;;;;;;;;;4906882;29;20248;-61
2022/11/09 13:18:45;;;;;;;37.78;15.70;;;;;;;;;;4907341;29;20209;-61
2022/11/09 13:21:32;;;;;;;47.15;18.65;;;;;;;;;;4920590;29;20555;-62
2022/11/09 13:24:30;;;;;;;50.20;18.13;;;;;;;;;;4921029;29;20208;-61
2022/11/09 13:27:45;;;;;;;28.30;12.32;;;;;;;;;;4920853;29;20228;-61
2022/11/09 13:30:34;;;;;;;57.00;30.83;;;;;;;;;;4908317;29;20903;-61
2022/11/09 13:33:20;;;;;;;56.30;20.60;;;;;;;;;;4920763;29;20208;-61
2022/11/09 13:36:06;;;;;;;37.92;13.07;;;;;;;;;;4920985;29;20227;-62
2022/11/09 13:39:29;;;;;;;34.03;13.10;;;;;;;;;;4920600;29;20627;-61
2022/11/09 13:42:28;;;;;;;34.40;13.32;;;;;;;;;;4920653;29;20193;-61
2022/11/09 13:45:41;;;;;;;32.35;13.60;;;;;;;;;;4920419;29;20213;-61
2022/11/09 13:48:35;;;;;;;19.25;9.82;;;;;;;;;;4895855;29;20548;-61
2022/11/09 13:51:46;;;;;;;17.92;9.73;;;;;;;;;;4906770;29;20559;-60
2022/11/09 13:54:36;;;;;;;21.02;9.90;;;;;;;;;;4920752;29;20209;-60
2022/11/09 13:57:22;;;;;;;61.80;22.15;;;;;;;;;;4920290;29;20220;-60
2022/11/09 14:00:35;;;;;;;71.88;19.55;;;;;;;;;;4889971;29;20756;-60
2022/11/09 14:03:22;;;;;;;36.38;12.52;;;;;;;;;;4900177;29;20253;-60
2022/11/09 14:06:10;;;;;;;30.48;11.95;;;;;;;;;;4912724;29;20236;-61
2022/11/09 14:08:56;;;;;;;28.27;11.48;;;;;;;;;;4905060;29;20592;-61
2022/11/09 14:12:03;;;;;;;26.08;11.43;;;;;;;;;;4918976;29;20235;-60
2022/11/09 14:15:05;;;;;;;25.08;10.23;;;;;;;;;;4910637;29;20238;-62
2022/11/09 14:18:06;;;;;;;17.55;9.45;;;;;;;;;;4925293;29;20232;-62
2022/11/09 14:21:02;;;;;;;30.02;12.45;;;;;;;;;;4918186;29;20272;-61
2022/11/09 14:23:48;;;;;;;575.67;373.92;;;;;;;;;;4900120;29;20257;-61
2022/11/09 14:26:34;;;;;;;214.40;68.60;;;;;;;;;;4901186;29;20237;-60
2022/11/09 14:29:22;;;;;;;60.17;21.80;;;;;;;;;;4933684;29;20231;-61
2022/11/09 14:32:24;;;;;;;46.50;16.88;;;;;;;;;;4918771;29;20296;-62
2022/11/09 14:35:19;;;;;;;34.85;14.73;;;;;;;;;;4918328;29;20236;-61
2022/11/09 14:38:15;;;;;;;43.60;17.48;;;;;;;;;;4916861;29;20220;-61
2022/11/09 14:41:01;;;;;;;38.67;16.90;;;;;;;;;;4918310;29;20233;-61
2022/11/09 14:43:48;;;;;;;32.28;14.23;;;;;;;;;;4921364;29;20233;-61
2022/11/09 14:46:34;;;;;;;29.30;13.50;;;;;;;;;;4928821;29;20236;-61
2022/11/09 14:49:20;;;;;;;53.25;22.10;;;;;;;;;;4922967;29;20238;-60
2022/11/09 14:52:07;;;;;;;139.93;76.35;;;;;;;;;;4904533;29;20236;-61
2022/11/09 14:54:53;;;;;;;168.45;62.00;;;;;;;;;;4904289;29;20706;-61
2022/11/09 14:57:39;;;;;;;108.50;40.08;;;;;;;;;;4904084;29;20683;-62
2022/11/09 15:00:30;;;;;;;86.15;30.40;;;;;;;;;;4904365;29;20235;-61
2022/11/09 15:03:22;;;;;;;53.53;22.65;;;;;;;;;;4910802;29;20220;-61
2022/11/09 15:06:10;;;;;;;46.05;20.30;;;;;;;;;;4919269;29;20230;-62
2022/11/09 15:08:57;;;;;;;42.50;20.88;;;;;;;;;;4925371;29;20224;-62
2022/11/09 15:11:43;;;;;;;47.95;19.63;;;;;;;;;;4936499;29;20602;-61